sensor_id;sensor_type;location;lat;lon;timestamp;pressure;altitude;pressure_sealevel;temperature;humidity
44027;BME280;29696;55.698;37.460;2023-02-23T00:01:40;99435.56;;;-14.28;71.84
44027;BME280;29696;55.698;37.460;2023-02-23T00:04:07;99439.78;;;-14.32;71.77
44027;BME280;29696;55.698;37.460;2023-02-23T00:06:35;99446.56;;;-14.32;71.68
44027;BME280;29696;55.698;37.460;2023-02-23T00:09:03;99449.06;;;-14.34;71.83
44027;BME280;29696;55.698;37.460;2023-02-23T00:11:55;99452.47;;;-14.32;71.97
44027;BME280;29696;55.698;37.460;2023-02-23T00:14:27;99453.28;;;-14.33;72.18
44027;BME280;29696;55.698;37.460;2023-02-23T00:16:54;99450.75;;;-14.33;72.07
44027;BME280;29696;55.698;37.460;2023-02-23T00:19:21;99454.13;;;-14.35;71.92
44027;BME280;29696;55.698;37.460;2023-02-23T00:21:50;99465.94;;;-14.36;72.12
44027;BME280;29696;55.698;37.460;2023-02-23T00:24:16;99453.25;;;-14.37;72.09
44027;BME280;29696;55.698;37.460;2023-02-23T00:26:46;99456.59;;;-14.43;72.00
44027;BME280;29696;55.698;37.460;2023-02-23T00:29:16;99464.22;;;-14.41;72.16
44027;BME280;29696;55.698;37.460;2023-02-23T00:31:43;99463.34;;;-14.43;72.18
44027;BME280;29696;55.698;37.460;2023-02-23T00:34:11;99468.41;;;-14.45;72.36
44027;BME280;29696;55.698;37.460;2023-02-23T00:36:38;99464.16;;;-14.47;72.21
44027;BME280;29696;55.698;37.460;2023-02-23T00:39:07;99469.25;;;-14.47;72.34
44027;BME280;29696;55.698;37.460;2023-02-23T00:41:54;99466.66;;;-14.51;72.29
44027;BME280;29696;55.698;37.460;2023-02-23T00:44:23;99467.53;;;-14.50;72.39
44027;BME280;29696;55.698;37.460;2023-02-23T00:46:50;99477.66;;;-14.52;72.43
44027;BME280;29696;55.698;37.460;2023-02-23T00:49:17;99473.41;;;-14.56;72.57
44027;BME280;29696;55.698;37.460;2023-02-23T00:51:44;99479.34;;;-14.54;72.58
44027;BME280;29696;55.698;37.460;2023-02-23T00:54:12;99480.22;;;-14.53;72.67
44027;BME280;29696;55.698;37.460;2023-02-23T00:56:39;99474.22;;;-14.58;72.77
44027;BME280;29696;55.698;37.460;2023-02-23T00:59:05;99477.63;;;-14.56;72.59
44027;BME280;29696;55.698;37.460;2023-02-23T01:01:32;99481.00;;;-14.59;72.75
44027;BME280;29696;55.698;37.460;2023-02-23T01:04:00;99484.41;;;-14.55;72.96
44027;BME280;29696;55.698;37.460;2023-02-23T01:06:26;99491.16;;;-14.56;72.91
44027;BME280;29696;55.698;37.460;2023-02-23T01:08:53;99486.06;;;-14.59;73.02
44027;BME280;29696;55.698;37.460;2023-02-23T01:11:24;99489.47;;;-14.55;72.98
44027;BME280;29696;55.698;37.460;2023-02-23T01:13:58;99489.44;;;-14.57;73.16
44027;BME280;29696;55.698;37.460;2023-02-23T01:16:27;99493.69;;;-14.57;72.77
44027;BME280;29696;55.698;37.460;2023-02-23T01:18:56;99496.22;;;-14.59;72.94
44027;BME280;29696;55.698;37.460;2023-02-23T01:21:26;99496.22;;;-14.59;73.03
44027;BME280;29696;55.698;37.460;2023-02-23T01:23:53;99508.06;;;-14.59;73.29
44027;BME280;29696;55.698;37.460;2023-02-23T01:26:41;99503.84;;;-14.56;73.25
44027;BME280;29696;55.698;37.460;2023-02-23T01:29:13;99508.91;;;-14.59;73.37
44027;BME280;29696;55.698;37.460;2023-02-23T01:31:45;99501.25;;;-14.60;73.23
44027;BME280;29696;55.698;37.460;2023-02-23T01:34:15;99504.56;;;-14.66;73.05
44027;BME280;29696;55.698;37.460;2023-02-23T01:36:44;99506.28;;;-14.65;73.23
44027;BME280;29696;55.698;37.460;2023-02-23T01:39:15;99502.88;;;-14.67;73.22
44027;BME280;29696;55.698;37.460;2023-02-23T01:41:43;99495.19;;;-14.72;73.14
44027;BME280;29696;55.698;37.460;2023-02-23T01:47:19;99488.41;;;-14.76;72.98
44027;BME280;29696;55.698;37.460;2023-02-23T01:49:46;99487.56;;;-14.76;73.09
44027;BME280;29696;55.698;37.460;2023-02-23T01:52:14;99487.47;;;-14.81;73.20
44027;BME280;29696;55.698;37.460;2023-02-23T01:54:46;99497.66;;;-14.79;73.12
44027;BME280;29696;55.698;37.460;2023-02-23T01:57:15;99501.00;;;-14.82;73.16
44027;BME280;29696;55.698;37.460;2023-02-23T01:59:45;99497.59;;;-14.85;73.29
44027;BME280;29696;55.698;37.460;2023-02-23T02:02:12;99506.03;;;-14.85;73.35
44027;BME280;29696;55.698;37.460;2023-02-23T02:04:41;99515.34;;;-14.84;73.68
44027;BME280;29696;55.698;37.460;2023-02-23T02:07:19;99514.50;;;-14.86;73.50
44027;BME280;29696;55.698;37.460;2023-02-23T02:09:50;99523.75;;;-14.88;73.48
44027;BME280;29696;55.698;37.460;2023-02-23T02:12:54;99518.59;;;-14.94;73.38
44027;BME280;29696;55.698;37.460;2023-02-23T02:15:24;99523.63;;;-14.97;73.38
44027;BME280;29696;55.698;37.460;2023-02-23T02:18:11;99516.03;;;-14.97;73.47
44027;BME280;29696;55.698;37.460;2023-02-23T02:21:23;99530.41;;;-14.98;73.48
44027;BME280;29696;55.698;37.460;2023-02-23T02:27:55;99520.13;;;-15.05;73.46
44027;BME280;29696;55.698;37.460;2023-02-23T02:31:13;99532.81;;;-15.05;73.70
44027;BME280;29696;55.698;37.460;2023-02-23T02:34:19;99538.69;;;-15.08;73.76
44027;BME280;29696;55.698;37.460;2023-02-23T02:37:15;99550.47;;;-15.11;73.82
44027;BME280;29696;55.698;37.460;2023-02-23T02:43:14;99547.00;;;-15.18;73.99
44027;BME280;29696;55.698;37.460;2023-02-23T02:46:09;99550.38;;;-15.19;74.08
44027;BME280;29696;55.698;37.460;2023-02-23T02:49:06;99545.31;;;-15.19;74.17
44027;BME280;29696;55.698;37.460;2023-02-23T02:51:58;99552.03;;;-15.21;74.08
44027;BME280;29696;55.698;37.460;2023-02-23T02:55:01;99552.00;;;-15.23;74.11
44027;BME280;29696;55.698;37.460;2023-02-23T02:57:31;99543.47;;;-15.29;74.17
44027;BME280;29696;55.698;37.460;2023-02-23T02:59:58;99543.44;;;-15.31;74.01
44027;BME280;29696;55.698;37.460;2023-02-23T03:02:43;99555.25;;;-15.31;74.24
44027;BME280;29696;55.698;37.460;2023-02-23T03:08:57;99551.81;;;-15.35;74.24
44027;BME280;29696;55.698;37.460;2023-02-23T03:11:52;99559.41;;;-15.35;74.40
44027;BME280;29696;55.698;37.460;2023-02-23T03:21:55;99554.25;;;-15.43;74.36
44027;BME280;29696;55.698;37.460;2023-02-23T03:24:48;99556.75;;;-15.46;74.34
44027;BME280;29696;55.698;37.460;2023-02-23T03:31:41;99571.19;;;-15.40;74.56
44027;BME280;29696;55.698;37.460;2023-02-23T03:34:54;99563.59;;;-15.40;74.60
44027;BME280;29696;55.698;37.460;2023-02-23T03:46:02;99580.25;;;-15.54;74.35
44027;BME280;29696;55.698;37.460;2023-02-23T03:48:49;99573.34;;;-15.61;74.73
44027;BME280;29696;55.698;37.460;2023-02-23T03:51:38;99575.84;;;-15.65;74.33
44027;BME280;29696;55.698;37.460;2023-02-23T03:54:39;99583.47;;;-15.63;74.53
44027;BME280;29696;55.698;37.460;2023-02-23T03:57:27;99581.75;;;-15.66;74.49
44027;BME280;29696;55.698;37.460;2023-02-23T04:00:18;99576.59;;;-15.72;74.42
44027;BME280;29696;55.698;37.460;2023-02-23T04:03:07;99582.56;;;-15.70;74.52
44027;BME280;29696;55.698;37.460;2023-02-23T04:05:55;99585.84;;;-15.74;74.31
44027;BME280;29696;55.698;37.460;2023-02-23T04:08:42;99583.25;;;-15.77;74.45
44027;BME280;29696;55.698;37.460;2023-02-23T04:11:49;99589.22;;;-15.75;74.54
44027;BME280;29696;55.698;37.460;2023-02-23T04:14:44;99602.72;;;-15.76;74.60
44027;BME280;29696;55.698;37.460;2023-02-23T04:17:13;99607.72;;;-15.79;74.74
44027;BME280;29696;55.698;37.460;2023-02-23T04:19:52;99603.47;;;-15.81;74.76
44027;BME280;29696;55.698;37.460;2023-02-23T04:22:20;99606.84;;;-15.81;74.82
44027;BME280;29696;55.698;37.460;2023-02-23T04:24:46;99599.13;;;-15.85;74.59
44027;BME280;29696;55.698;37.460;2023-02-23T04:27:14;99603.41;;;-15.83;74.92
44027;BME280;29696;55.698;37.460;2023-02-23T04:29:40;99601.66;;;-15.85;74.83
44027;BME280;29696;55.698;37.460;2023-02-23T04:32:12;99611.00;;;-15.83;74.78
44027;BME280;29696;55.698;37.460;2023-02-23T04:34:38;99605.03;;;-15.86;74.74
44027;BME280;29696;55.698;37.460;2023-02-23T04:37:05;99594.91;;;-15.86;74.83
44027;BME280;29696;55.698;37.460;2023-02-23T04:39:31;99595.72;;;-15.89;74.78
44027;BME280;29696;55.698;37.460;2023-02-23T04:41:57;99607.63;;;-15.83;74.67
44027;BME280;29696;55.698;37.460;2023-02-23T04:44:24;99606.84;;;-15.79;74.88
44027;BME280;29696;55.698;37.460;2023-02-23T04:46:50;99611.97;;;-15.76;74.86
44027;BME280;29696;55.698;37.460;2023-02-23T04:49:16;99615.50;;;-15.68;74.97
44027;BME280;29696;55.698;37.460;2023-02-23T04:51:42;99618.19;;;-15.56;74.97
44027;BME280;29696;55.698;37.460;2023-02-23T04:54:09;99613.63;;;-15.27;75.15
44027;BME280;29696;55.698;37.460;2023-02-23T04:56:35;99615.25;;;-14.74;75.44
44027;BME280;29696;55.698;37.460;2023-02-23T04:59:02;99613.47;;;-14.10;75.87
44027;BME280;29696;55.698;37.460;2023-02-23T05:01:28;99611.44;;;-13.64;76.04
44027;BME280;29696;55.698;37.460;2023-02-23T05:03:55;99621.44;;;-13.76;74.88
44027;BME280;29696;55.698;37.460;2023-02-23T05:06:21;99621.31;;;-13.90;73.30
44027;BME280;29696;55.698;37.460;2023-02-23T05:08:47;99622.97;;;-13.92;71.93
44027;BME280;29696;55.698;37.460;2023-02-23T05:11:14;99624.63;;;-13.94;70.95
44027;BME280;29696;55.698;37.460;2023-02-23T05:13:40;99624.66;;;-13.91;70.13
44027;BME280;29696;55.698;37.460;2023-02-23T05:16:07;99636.56;;;-13.90;69.38
44027;BME280;29696;55.698;37.460;2023-02-23T05:18:33;99637.44;;;-13.88;69.24
44027;BME280;29696;55.698;37.460;2023-02-23T05:21:02;99639.25;;;-13.73;69.22
44027;BME280;29696;55.698;37.460;2023-02-23T05:23:28;99638.88;;;-13.20;69.30
44027;BME280;29696;55.698;37.460;2023-02-23T05:25:59;99625.19;;;-11.81;69.77
44027;BME280;29696;55.698;37.460;2023-02-23T05:28:26;99632.84;;;-10.46;67.79
44027;BME280;29696;55.698;37.460;2023-02-23T05:30:52;99625.47;;;-9.37;61.34
44027;BME280;29696;55.698;37.460;2023-02-23T05:33:18;99615.00;;;-8.23;56.22
44027;BME280;29696;55.698;37.460;2023-02-23T05:35:47;99628.97;;;-7.17;53.29
44027;BME280;29696;55.698;37.460;2023-02-23T05:38:13;99618.75;;;-6.23;49.45
44027;BME280;29696;55.698;37.460;2023-02-23T05:40:40;99625.53;;;-5.39;47.20
44027;BME280;29696;55.698;37.460;2023-02-23T05:43:07;99626.78;;;-4.83;44.68
44027;BME280;29696;55.698;37.460;2023-02-23T05:45:33;99631.75;;;-4.75;42.78
44027;BME280;29696;55.698;37.460;2023-02-23T05:47:59;99630.47;;;-5.29;42.85
44027;BME280;29696;55.698;37.460;2023-02-23T05:50:26;99630.13;;;-5.52;43.20
44027;BME280;29696;55.698;37.460;2023-02-23T05:52:52;99624.75;;;-5.80;43.55
44027;BME280;29696;55.698;37.460;2023-02-23T05:55:18;99628.50;;;-5.95;43.06
44027;BME280;29696;55.698;37.460;2023-02-23T05:57:45;99632.44;;;-5.02;43.32
44027;BME280;29696;55.698;37.460;2023-02-23T06:00:12;99625.41;;;-4.96;42.97
44027;BME280;29696;55.698;37.460;2023-02-23T06:02:39;99630.56;;;-4.97;41.75
44027;BME280;29696;55.698;37.460;2023-02-23T06:05:07;99636.81;;;-5.45;41.67
44027;BME280;29696;55.698;37.460;2023-02-23T06:07:34;99642.41;;;-6.04;43.10
44027;BME280;29696;55.698;37.460;2023-02-23T06:10:00;99647.25;;;-6.83;43.54
44027;BME280;29696;55.698;37.460;2023-02-23T06:12:26;99658.63;;;-6.96;44.33
44027;BME280;29696;55.698;37.460;2023-02-23T06:14:53;99658.78;;;-7.07;45.22
44027;BME280;29696;55.698;37.460;2023-02-23T06:17:19;99647.25;;;-6.81;45.59
44027;BME280;29696;55.698;37.460;2023-02-23T06:19:45;99642.22;;;-5.94;45.17
44027;BME280;29696;55.698;37.460;2023-02-23T06:22:12;99646.47;;;-4.46;42.33
44027;BME280;29696;55.698;37.460;2023-02-23T06:24:39;99653.69;;;-4.26;40.95
44027;BME280;29696;55.698;37.460;2023-02-23T06:27:05;99644.09;;;-4.53;40.47
44027;BME280;29696;55.698;37.460;2023-02-23T06:29:32;99641.97;;;-4.38;39.03
44027;BME280;29696;55.698;37.460;2023-02-23T06:31:58;99643.31;;;-3.06;37.79
44027;BME280;29696;55.698;37.460;2023-02-23T06:34:24;99640.19;;;-1.89;36.82
44027;BME280;29696;55.698;37.460;2023-02-23T06:36:51;99635.78;;;-1.18;35.56
44027;BME280;29696;55.698;37.460;2023-02-23T06:39:17;99635.69;;;-1.60;34.79
44027;BME280;29696;55.698;37.460;2023-02-23T06:41:44;99646.53;;;-1.27;34.78
44027;BME280;29696;55.698;37.460;2023-02-23T06:44:10;99643.72;;;-0.36;33.75
44027;BME280;29696;55.698;37.460;2023-02-23T06:46:37;99637.88;;;0.76;32.36
44027;BME280;29696;55.698;37.460;2023-02-23T06:49:03;99637.38;;;0.67;31.22
44027;BME280;29696;55.698;37.460;2023-02-23T06:51:30;99643.72;;;0.81;31.27
44027;BME280;29696;55.698;37.460;2023-02-23T06:53:56;99643.97;;;0.94;31.67
44027;BME280;29696;55.698;37.460;2023-02-23T06:56:22;99644.81;;;1.98;30.89
44027;BME280;29696;55.698;37.460;2023-02-23T06:58:49;99644.81;;;1.98;30.89
44027;BME280;29696;55.698;37.460;2023-02-23T07:01:16;99643.50;;;2.72;28.48
44027;BME280;29696;55.698;37.460;2023-02-23T07:03:44;99649.13;;;2.96;29.35
44027;BME280;29696;55.698;37.460;2023-02-23T07:06:10;99643.47;;;4.08;27.65
44027;BME280;29696;55.698;37.460;2023-02-23T07:08:37;99648.03;;;4.48;26.35
44027;BME280;29696;55.698;37.460;2023-02-23T07:11:08;99646.06;;;4.51;26.38
44027;BME280;29696;55.698;37.460;2023-02-23T07:13:35;99656.94;;;5.41;26.42
44027;BME280;29696;55.698;37.460;2023-02-23T07:16:02;99658.50;;;5.31;25.73
44027;BME280;29696;55.698;37.460;2023-02-23T07:18:28;99662.16;;;4.02;26.15
44027;BME280;29696;55.698;37.460;2023-02-23T07:20:54;99665.19;;;2.41;27.90
44027;BME280;29696;55.698;37.460;2023-02-23T07:23:21;99670.69;;;0.40;30.54
44027;BME280;29696;55.698;37.460;2023-02-23T07:25:51;99684.75;;;0.55;31.95
44027;BME280;29696;55.698;37.460;2023-02-23T07:28:19;99667.00;;;1.90;30.26
44027;BME280;29696;55.698;37.460;2023-02-23T07:30:46;99683.16;;;2.29;29.46
44027;BME280;29696;55.698;37.460;2023-02-23T07:33:15;99675.50;;;2.91;29.04
44027;BME280;29696;55.698;37.460;2023-02-23T07:35:41;99676.06;;;4.03;28.33
44027;BME280;29696;55.698;37.460;2023-02-23T07:38:09;99666.09;;;4.52;27.01
44027;BME280;29696;55.698;37.460;2023-02-23T07:40:36;99679.16;;;4.52;26.84
44027;BME280;29696;55.698;37.460;2023-02-23T07:43:02;99678.06;;;5.25;27.29
44027;BME280;29696;55.698;37.460;2023-02-23T07:45:29;99679.84;;;6.17;25.28
44027;BME280;29696;55.698;37.460;2023-02-23T07:47:55;99676.22;;;6.69;24.27
44027;BME280;29696;55.698;37.460;2023-02-23T07:50:21;99680.16;;;6.38;24.14
44027;BME280;29696;55.698;37.460;2023-02-23T07:52:49;99683.53;;;6.14;25.12
44027;BME280;29696;55.698;37.460;2023-02-23T07:55:15;99673.97;;;6.26;24.67
44027;BME280;29696;55.698;37.460;2023-02-23T07:57:42;99663.47;;;6.76;23.48
44027;BME280;29696;55.698;37.460;2023-02-23T08:00:09;99681.06;;;6.62;24.14
44027;BME280;29696;55.698;37.460;2023-02-23T08:02:39;99666.63;;;6.31;23.61
44027;BME280;29696;55.698;37.460;2023-02-23T08:05:06;99671.56;;;6.10;24.80
44027;BME280;29696;55.698;37.460;2023-02-23T08:07:32;99673.91;;;5.88;23.90
44027;BME280;29696;55.698;37.460;2023-02-23T08:09:59;99672.22;;;5.34;24.56
44027;BME280;29696;55.698;37.460;2023-02-23T08:12:25;99671.75;;;4.73;25.07
44027;BME280;29696;55.698;37.460;2023-02-23T08:14:52;99661.88;;;4.21;26.04
44027;BME280;29696;55.698;37.460;2023-02-23T08:17:19;99665.19;;;3.04;26.36
44027;BME280;29696;55.698;37.460;2023-02-23T08:19:45;99670.13;;;1.96;28.18
44027;BME280;29696;55.698;37.460;2023-02-23T08:22:12;99674.63;;;1.23;29.36
44027;BME280;29696;55.698;37.460;2023-02-23T08:24:38;99672.91;;;0.29;30.62
44027;BME280;29696;55.698;37.460;2023-02-23T08:27:04;99671.88;;;-0.47;32.10
44027;BME280;29696;55.698;37.460;2023-02-23T08:29:31;99671.00;;;-0.90;33.74
44027;BME280;29696;55.698;37.460;2023-02-23T08:32:01;99675.88;;;-1.26;34.59
44027;BME280;29696;55.698;37.460;2023-02-23T08:34:27;99676.84;;;-1.99;35.00
44027;BME280;29696;55.698;37.460;2023-02-23T08:36:54;99680.06;;;-2.69;35.99
44027;BME280;29696;55.698;37.460;2023-02-23T08:39:20;99683.41;;;-3.50;38.07
44027;BME280;29696;55.698;37.460;2023-02-23T08:41:47;99680.81;;;-4.09;39.20
44027;BME280;29696;55.698;37.460;2023-02-23T08:44:13;99682.66;;;-4.49;40.49
44027;BME280;29696;55.698;37.460;2023-02-23T08:46:40;99681.84;;;-4.85;41.65
44027;BME280;29696;55.698;37.460;2023-02-23T08:49:06;99680.19;;;-5.25;42.37
44027;BME280;29696;55.698;37.460;2023-02-23T08:51:35;99684.41;;;-5.63;43.31
44027;BME280;29696;55.698;37.460;2023-02-23T08:54:01;99691.81;;;-5.89;44.76
44027;BME280;29696;55.698;37.460;2023-02-23T08:56:28;99695.56;;;-6.04;45.11
44027;BME280;29696;55.698;37.460;2023-02-23T08:58:55;99700.88;;;-6.12;45.38
44027;BME280;29696;55.698;37.460;2023-02-23T09:01:22;99697.63;;;-6.23;45.56
44027;BME280;29696;55.698;37.460;2023-02-23T09:03:48;99687.47;;;-6.29;46.36
44027;BME280;29696;55.698;37.460;2023-02-23T09:06:18;99689.31;;;-6.37;46.33
44027;BME280;29696;55.698;37.460;2023-02-23T09:08:45;99692.97;;;-6.51;47.26
44027;BME280;29696;55.698;37.460;2023-02-23T09:11:11;99687.16;;;-6.60;47.70
44027;BME280;29696;55.698;37.460;2023-02-23T09:13:37;99690.72;;;-6.69;47.87
44027;BME280;29696;55.698;37.460;2023-02-23T09:16:04;99687.34;;;-6.73;48.93
44027;BME280;29696;55.698;37.460;2023-02-23T09:18:32;99693.25;;;-6.66;48.25
44027;BME280;29696;55.698;37.460;2023-02-23T09:21:02;99691.53;;;-6.67;48.13
44027;BME280;29696;55.698;37.460;2023-02-23T09:23:32;99684.84;;;-6.76;48.08
44027;BME280;29696;55.698;37.460;2023-02-23T09:26:06;99693.28;;;-6.69;48.68
44027;BME280;29696;55.698;37.460;2023-02-23T09:28:34;99689.97;;;-6.76;48.38
44027;BME280;29696;55.698;37.460;2023-02-23T09:31:05;99684.75;;;-6.70;48.96
44027;BME280;29696;55.698;37.460;2023-02-23T09:33:31;99682.22;;;-6.74;48.84
44027;BME280;29696;55.698;37.460;2023-02-23T09:35:58;99677.97;;;-6.75;49.53
44027;BME280;29696;55.698;37.460;2023-02-23T09:38:24;99670.16;;;-6.69;49.55
44027;BME280;29696;55.698;37.460;2023-02-23T09:40:54;99672.63;;;-6.63;49.62
44027;BME280;29696;55.698;37.460;2023-02-23T09:44:01;99671.53;;;-6.50;49.05
44027;BME280;29696;55.698;37.460;2023-02-23T09:49:44;99679.66;;;-6.74;49.06
44027;BME280;29696;55.698;37.460;2023-02-23T09:52:21;99677.97;;;-6.75;49.58
44027;BME280;29696;55.698;37.460;2023-02-23T09:54:49;99676.41;;;-6.85;50.17
44027;BME280;29696;55.698;37.460;2023-02-23T09:57:24;99682.38;;;-6.83;50.54
44027;BME280;29696;55.698;37.460;2023-02-23T09:59:54;99669.69;;;-6.93;50.19
44027;BME280;29696;55.698;37.460;2023-02-23T10:02:33;99664.50;;;-6.90;50.49
44027;BME280;29696;55.698;37.460;2023-02-23T10:05:06;99666.28;;;-6.93;50.19
44027;BME280;29696;55.698;37.460;2023-02-23T10:07:46;99669.63;;;-6.91;50.77
44027;BME280;29696;55.698;37.460;2023-02-23T10:19:58;99660.44;;;-7.06;50.79
44027;BME280;29696;55.698;37.460;2023-02-23T10:22:27;99664.88;;;-7.16;50.93
44027;BME280;29696;55.698;37.460;2023-02-23T10:25:05;99665.69;;;-7.10;51.47
44027;BME280;29696;55.698;37.460;2023-02-23T10:27:40;99660.59;;;-7.14;51.60
44027;BME280;29696;55.698;37.460;2023-02-23T10:30:24;99669.03;;;-7.05;51.17
44027;BME280;29696;55.698;37.460;2023-02-23T10:35:44;99670.97;;;-7.21;51.22
44027;BME280;29696;55.698;37.460;2023-02-23T10:38:16;99669.94;;;-7.09;51.27
44027;BME280;29696;55.698;37.460;2023-02-23T10:40:47;99655.25;;;-7.01;51.33
44027;BME280;29696;55.698;37.460;2023-02-23T10:43:15;99661.97;;;-6.93;51.23
44027;BME280;29696;55.698;37.460;2023-02-23T10:45:50;99666.97;;;-6.85;51.35
44027;BME280;29696;55.698;37.460;2023-02-23T10:48:37;99669.59;;;-6.86;50.90
44027;BME280;29696;55.698;37.460;2023-02-23T10:51:24;99666.09;;;-6.82;51.54
44027;BME280;29696;55.698;37.460;2023-02-23T10:53:52;99666.13;;;-6.84;51.25
44027;BME280;29696;55.698;37.460;2023-02-23T10:56:20;99673.78;;;-6.81;50.63
44027;BME280;29696;55.698;37.460;2023-02-23T10:58:49;99664.44;;;-6.86;50.40
44027;BME280;29696;55.698;37.460;2023-02-23T11:01:40;99663.44;;;-6.78;50.59
44027;BME280;29696;55.698;37.460;2023-02-23T11:04:33;99648.91;;;-6.79;51.39
44027;BME280;29696;55.698;37.460;2023-02-23T11:07:30;99654.78;;;-6.72;51.42
44027;BME280;29696;55.698;37.460;2023-02-23T11:10:28;99640.94;;;-6.65;51.36
44027;BME280;29696;55.698;37.460;2023-02-23T11:12:54;99640.06;;;-6.62;51.21
44027;BME280;29696;55.698;37.460;2023-02-23T11:15:43;99643.13;;;-6.44;51.07
44027;BME280;29696;55.698;37.460;2023-02-23T11:18:20;99642.28;;;-6.44;50.65
44027;BME280;29696;55.698;37.460;2023-02-23T11:20:48;99650.09;;;-6.49;50.03
44027;BME280;29696;55.698;37.460;2023-02-23T11:23:28;99643.13;;;-6.44;50.35
44027;BME280;29696;55.698;37.460;2023-02-23T11:26:01;99638.94;;;-6.49;50.61
44027;BME280;29696;55.698;37.460;2023-02-23T11:28:34;99643.19;;;-6.45;50.67
44027;BME280;29696;55.698;37.460;2023-02-23T11:31:17;99647.44;;;-6.44;50.55
44027;BME280;29696;55.698;37.460;2023-02-23T11:33:45;99644.97;;;-6.49;50.83
44027;BME280;29696;55.698;37.460;2023-02-23T11:36:34;99646.47;;;-6.37;50.72
44027;BME280;29696;55.698;37.460;2023-02-23T11:39:21;99651.50;;;-6.32;50.34
44027;BME280;29696;55.698;37.460;2023-02-23T11:42:12;99653.25;;;-6.34;50.42
44027;BME280;29696;55.698;37.460;2023-02-23T11:44:40;99643.19;;;-6.45;49.78
44027;BME280;29696;55.698;37.460;2023-02-23T11:47:14;99652.56;;;-6.43;49.62
44027;BME280;29696;55.698;37.460;2023-02-23T11:49:44;99640.66;;;-6.48;49.68
44027;BME280;29696;55.698;37.460;2023-02-23T11:52:19;99644.91;;;-6.46;50.53
44027;BME280;29696;55.698;37.460;2023-02-23T11:55:02;99642.34;;;-6.47;50.42
44027;BME280;29696;55.698;37.460;2023-02-23T11:57:33;99633.81;;;-6.49;50.35
44027;BME280;29696;55.698;37.460;2023-02-23T12:00:24;99640.50;;;-6.39;50.82
44027;BME280;29696;55.698;37.460;2023-02-23T12:02:57;99638.81;;;-6.41;49.73
44027;BME280;29696;55.698;37.460;2023-02-23T12:05:31;99633.72;;;-6.43;49.98
44027;BME280;29696;55.698;37.460;2023-02-23T12:08:20;99638.75;;;-6.37;50.46
44027;BME280;29696;55.698;37.460;2023-02-23T12:10:57;99635.28;;;-6.36;49.87
44027;BME280;29696;55.698;37.460;2023-02-23T12:13:58;99630.06;;;-6.31;49.65
44027;BME280;29696;55.698;37.460;2023-02-23T12:16:39;99625.84;;;-6.35;50.16
44027;BME280;29696;55.698;37.460;2023-02-23T12:19:24;99630.00;;;-6.28;49.75
44027;BME280;29696;55.698;37.460;2023-02-23T12:23:16;99618.72;;;-6.21;49.81
44027;BME280;29696;55.698;37.460;2023-02-23T12:31:51;99612.63;;;-6.17;48.73
44027;BME280;29696;55.698;37.460;2023-02-23T12:34:26;99620.47;;;-6.22;48.19
44027;BME280;29696;55.698;37.460;2023-02-23T12:37:04;99616.16;;;-6.21;48.68
44027;BME280;29696;55.698;37.460;2023-02-23T12:39:42;99623.09;;;-6.26;48.71
44027;BME280;29696;55.698;37.460;2023-02-23T12:45:21;99635.84;;;-6.18;49.16
44027;BME280;29696;55.698;37.460;2023-02-23T12:47:55;99629.06;;;-6.24;48.67
44027;BME280;29696;55.698;37.460;2023-02-23T12:50:51;99636.69;;;-6.18;48.70
44027;BME280;29696;55.698;37.460;2023-02-23T12:53:53;99650.31;;;-6.14;48.58
44027;BME280;29696;55.698;37.460;2023-02-23T12:56:52;99642.66;;;-6.17;48.70
44027;BME280;29696;55.698;37.460;2023-02-23T13:00:03;99648.56;;;-6.12;48.72
44027;BME280;29696;55.698;37.460;2023-02-23T13:06:56;99637.63;;;-6.24;49.32
44027;BME280;29696;55.698;37.460;2023-02-23T13:12:47;99632.69;;;-6.34;49.78
44027;BME280;29696;55.698;37.460;2023-02-23T13:18:23;99629.44;;;-6.43;50.28
44027;BME280;29696;55.698;37.460;2023-02-23T13:21:20;99627.63;;;-6.39;50.68
44027;BME280;29696;55.698;37.460;2023-02-23T13:27:13;99632.06;;;-6.47;51.26
44027;BME280;29696;55.698;37.460;2023-02-23T13:30:03;99637.31;;;-6.53;51.43
44027;BME280;29696;55.698;37.460;2023-02-23T13:32:32;99633.97;;;-6.57;51.00
44027;BME280;29696;55.698;37.460;2023-02-23T13:35:07;99628.88;;;-6.60;51.33
44027;BME280;29696;55.698;37.460;2023-02-23T13:37:43;99642.47;;;-6.53;51.49
44027;BME280;29696;55.698;37.460;2023-02-23T13:40:45;99639.78;;;-6.46;51.65
44027;BME280;29696;55.698;37.460;2023-02-23T13:43:27;99641.09;;;-6.25;51.32
44027;BME280;29696;55.698;37.460;2023-02-23T13:46:08;99646.97;;;-6.20;51.31
44027;BME280;29696;55.698;37.460;2023-02-23T13:51:52;99637.16;;;-6.44;50.86
44027;BME280;29696;55.698;37.460;2023-02-23T13:54:29;99644.97;;;-6.49;51.15
44027;BME280;29696;55.698;37.460;2023-02-23T13:56:59;99643.41;;;-6.57;51.13
44027;BME280;29696;55.698;37.460;2023-02-23T13:59:29;99637.53;;;-6.64;51.35
44027;BME280;29696;55.698;37.460;2023-02-23T14:01:56;99655.59;;;-6.70;52.05
44027;BME280;29696;55.698;37.460;2023-02-23T14:04:28;99646.25;;;-6.74;52.78
44027;BME280;29696;55.698;37.460;2023-02-23T14:07:29;99641.06;;;-6.70;53.35
44027;BME280;29696;55.698;37.460;2023-02-23T14:10:08;99631.94;;;-6.87;53.04
44027;BME280;29696;55.698;37.460;2023-02-23T14:12:41;99636.19;;;-6.86;53.36
44027;BME280;29696;55.698;37.460;2023-02-23T14:15:45;99632.72;;;-6.85;53.62
44027;BME280;29696;55.698;37.460;2023-02-23T14:19:05;99637.16;;;-6.94;53.91
44027;BME280;29696;55.698;37.460;2023-02-23T14:22:04;99631.22;;;-6.97;54.45
44027;BME280;29696;55.698;37.460;2023-02-23T14:24:31;99631.47;;;-7.13;54.65
44027;BME280;29696;55.698;37.460;2023-02-23T14:27:21;99639.94;;;-7.09;54.80
44027;BME280;29696;55.698;37.460;2023-02-23T14:30:16;99636.69;;;-7.17;55.19
44027;BME280;29696;55.698;37.460;2023-02-23T14:32:47;99623.25;;;-7.36;55.11
44027;BME280;29696;55.698;37.460;2023-02-23T14:35:52;99627.53;;;-7.35;54.98
44027;BME280;29696;55.698;37.460;2023-02-23T14:38:31;99629.41;;;-7.46;55.69
44027;BME280;29696;55.698;37.460;2023-02-23T14:41:00;99619.31;;;-7.60;55.75